| Date | Time | Temp. (oF) | Dew Point (oF) | Rel. Hum. (%) | Press. (in.) | Wind Dir. | Wind Speed (mph) | Hourly Rainfall (in.) |
|
|---|---|---|---|---|---|---|---|---|---|
| 1 | 07/29 | 00:00 | 70 | 61 | 75 | 30.23 | SE | 12 | 0.00 |
| 2 | 07/28 | 23:00 | 70 | 60 | 73 | 30.22 | SE | 4 | 0.00 |
| 3 | 07/28 | 22:00 | 71 | 60 | 70 | 30.22 | SE | 4 | 0.00 |
| 4 | 07/28 | 21:00 | 73 | 58 | 61 | 30.21 | SE | 3 | 0.00 |
| 5 | 07/28 | 20:00 | 75 | 58 | 56 | 30.21 | S | 3 | 0.00 |
| 6 | 07/28 | 19:00 | 77 | 56 | 49 | 30.19 | SSW | 5 | 0.00 |
| 7 | 07/28 | 18:00 | 79 | 57 | 48 | 30.19 | S | 5 | 0.00 |
| 8 | 07/28 | 17:00 | 82 | 57 | 44 | 30.21 | S | 9 | 0.00 |
| 9 | 07/28 | 16:00 | 81 | 58 | 46 | 30.22 | SSW | 14 | 0.00 |
| 10 | 07/28 | 15:00 | 82 | 58 | 45 | 30.24 | ESE | 4 | 0.00 |
| 11 | 07/28 | 14:00 | 80 | 58 | 49 | 30.26 | ESE | 6 | 0.00 |
| 12 | 07/28 | 13:00 | 79 | 58 | 49 | 30.28 | SSE | 5 | 0.00 |
| 13 | 07/28 | 12:00 | 78 | 60 | 56 | 30.30 | ENE | 6 | 0.00 |
| 14 | 07/28 | 11:00 | 75 | 62 | 65 | 30.32 | SE | 4 | 0.00 |
| 15 | 07/28 | 10:00 | 72 | 61 | 70 | 30.33 | SE | 6 | 0.00 |
| 16 | 07/28 | 09:00 | 68 | 61 | 80 | 30.34 | ESE | 2 | 0.00 |
| 17 | 07/28 | 08:00 | 64 | 60 | 89 | 30.34 | SE | 2 | 0.00 |
| 18 | 07/28 | 07:00 | 60 | 57 | 92 | 30.33 | ENE | 0 | 0.00 |
| 19 | 07/28 | 06:00 | 61 | 58 | 91 | 30.32 | ENE | 0 | 0.00 |
| 20 | 07/28 | 05:00 | 62 | 59 | 90 | 30.31 | NE | 0 | 0.00 |
| 21 | 07/28 | 04:00 | 62 | 58 | 89 | 30.30 | NE | 2 | 0.00 |
| 22 | 07/28 | 03:00 | 63 | 59 | 87 | 30.30 | NW | 0 | 0.00 |
| 23 | 07/28 | 02:00 | 64 | 59 | 85 | 30.30 | NNE | 1 | 0.00 |
| 24 | 07/28 | 01:00 | 64 | 59 | 84 | 30.31 | E | 0 | 0.00 |